createdAt,value
2022-12-05T00:01:42.313Z,23.15
2022-12-05T00:04:13.811Z,21.38
2022-12-05T00:06:43.006Z,24.33
2022-12-05T00:09:13.287Z,20.47
2022-12-05T00:11:44.728Z,23.57
2022-12-05T00:14:13.972Z,23.13
2022-12-05T00:16:43.895Z,21.55
2022-12-05T00:19:15.494Z,22.67
2022-12-05T00:21:43.578Z,24.17
2022-12-05T00:24:16.105Z,24.00
2022-12-05T00:26:44.187Z,21.17
2022-12-05T00:29:12.399Z,21.40
2022-12-05T00:31:39.875Z,22.88
2022-12-05T00:34:07.424Z,23.08
2022-12-05T00:36:36.407Z,22.52
2022-12-05T00:39:09.055Z,22.83
2022-12-05T00:41:37.254Z,20.85
2022-12-05T00:44:06.124Z,20.67
2022-12-05T00:46:35.356Z,23.50
2022-12-05T00:49:06.052Z,20.93
2022-12-05T00:51:39.978Z,23.20
2022-12-05T00:54:12.346Z,21.60
2022-12-05T00:56:39.931Z,22.90
2022-12-05T00:59:08.166Z,22.15
2022-12-05T01:01:39.953Z,21.83
2022-12-05T01:04:13.559Z,22.38
2022-12-05T01:06:42.074Z,19.30
2022-12-05T01:09:14.383Z,22.98
2022-12-05T01:11:42.876Z,21.63
2022-12-05T01:14:12.424Z,23.80
2022-12-05T01:16:42.523Z,21.80
2022-12-05T01:19:24.137Z,22.35
2022-12-05T01:21:52.107Z,22.02
2022-12-05T01:24:22.062Z,21.88
2022-12-05T01:26:49.557Z,22.88
2022-12-05T01:29:21.222Z,22.05
2022-12-05T01:31:48.602Z,22.33
2022-12-05T01:34:18.665Z,20.83
2022-12-05T01:36:46.427Z,21.50
2022-12-05T01:39:14.989Z,22.60
2022-12-05T01:41:46.842Z,22.42
2022-12-05T01:44:14.225Z,23.85
2022-12-05T01:46:50.833Z,22.17
2022-12-05T01:49:40.833Z,24.88
2022-12-05T01:52:26.041Z,21.08
2022-12-05T01:55:01.861Z,21.10
2022-12-05T01:57:29.312Z,20.73
2022-12-05T02:00:06.133Z,20.17
2022-12-05T02:02:33.661Z,19.37
2022-12-05T02:05:09.444Z,19.55
2022-12-05T02:07:41.313Z,20.25
2022-12-05T02:10:10.181Z,20.92
2022-12-05T02:12:39.222Z,21.30
2022-12-05T02:15:29.061Z,21.33
2022-12-05T02:18:37.029Z,17.95
2022-12-05T02:21:41.300Z,18.73
2022-12-05T02:24:55.293Z,18.73
2022-12-05T02:27:53.730Z,18.80
2022-12-05T02:30:24.831Z,18.15
2022-12-05T02:33:27.960Z,20.50
2022-12-05T02:36:15.388Z,18.67
2022-12-05T02:38:57.853Z,18.77
2022-12-05T02:41:32.927Z,19.23
2022-12-05T02:44:56.890Z,18.75
2022-12-05T02:47:30.827Z,19.95
2022-12-05T02:49:59.729Z,18.85
2022-12-05T02:52:30.471Z,19.30
2022-12-05T02:55:00.030Z,18.02
2022-12-05T02:57:27.158Z,20.58
2022-12-05T02:59:54.691Z,19.05
2022-12-05T03:02:33.158Z,19.00
2022-12-05T03:05:49.475Z,18.27
2022-12-05T03:08:23.862Z,18.80
2022-12-05T03:10:54.021Z,19.02
2022-12-05T03:13:54.155Z,19.45
2022-12-05T03:16:35.981Z,19.20
2022-12-05T03:19:23.371Z,20.42
2022-12-05T03:22:10.457Z,19.80
2022-12-05T03:24:41.890Z,19.58
2022-12-05T03:27:27.853Z,19.08
2022-12-05T03:30:27.712Z,20.20
2022-12-05T03:33:05.529Z,20.52
2022-12-05T03:35:43.022Z,18.63
2022-12-05T03:38:17.148Z,19.75
2022-12-05T03:41:21.138Z,20.30
2022-12-05T03:43:59.398Z,18.85
2022-12-05T03:46:46.793Z,20.70
2022-12-05T03:49:33.617Z,21.20
2022-12-05T03:52:15.682Z,20.17
2022-12-05T03:54:53.704Z,20.30
2022-12-05T03:57:32.283Z,20.33
2022-12-05T04:00:08.274Z,19.85
2022-12-05T04:02:47.762Z,20.77
2022-12-05T04:05:26.836Z,21.08
2022-12-05T04:08:13.051Z,22.35
2022-12-05T04:10:51.019Z,20.13
2022-12-05T04:13:39.283Z,19.88
2022-12-05T04:16:50.689Z,19.67
2022-12-05T04:19:27.421Z,20.45
2022-12-05T04:21:57.161Z,20.92
2022-12-05T04:24:48.938Z,21.10
2022-12-05T04:27:52.614Z,23.15
2022-12-05T04:30:24.839Z,21.38
2022-12-05T04:33:33.593Z,21.25
2022-12-05T04:36:33.087Z,21.25
2022-12-05T04:39:17.530Z,20.85
2022-12-05T04:42:24.403Z,21.67
2022-12-05T04:45:02.060Z,20.95
2022-12-05T04:47:40.040Z,21.00
2022-12-05T04:50:13.653Z,20.23
2022-12-05T04:52:44.028Z,20.23
2022-12-05T04:55:25.758Z,20.83
2022-12-05T04:58:16.853Z,21.95
2022-12-05T05:01:11.662Z,20.55
2022-12-05T05:03:44.377Z,21.50
2022-12-05T05:06:13.838Z,21.98
2022-12-05T05:08:55.436Z,23.80
2022-12-05T05:11:32.511Z,22.27
2022-12-05T05:14:00.414Z,23.00
2022-12-05T05:16:32.581Z,21.08
2022-12-05T05:18:59.859Z,21.50
2022-12-05T05:21:34.869Z,22.20
2022-12-05T05:24:02.777Z,22.13
2022-12-05T05:26:33.467Z,21.67
2022-12-05T05:29:01.140Z,23.92
2022-12-05T05:31:28.880Z,24.17
2022-12-05T05:33:57.383Z,22.30
2022-12-05T05:36:28.056Z,22.05
2022-12-05T05:38:58.812Z,21.75
2022-12-05T05:41:33.551Z,21.43
2022-12-05T05:44:01.970Z,23.20
2022-12-05T05:46:33.628Z,22.33
2022-12-05T05:49:01.269Z,23.77
2022-12-05T05:51:30.351Z,24.25
2022-12-05T05:53:59.775Z,21.23
2022-12-05T05:56:28.517Z,22.83
2022-12-05T05:59:02.520Z,22.50
2022-12-05T06:01:31.456Z,21.83
2022-12-05T06:03:59.349Z,23.93
2022-12-05T06:06:27.419Z,24.58
2022-12-05T06:08:55.158Z,25.83
2022-12-05T06:11:27.751Z,24.30
2022-12-05T06:13:56.892Z,23.55
2022-12-05T06:16:24.743Z,24.45
2022-12-05T06:18:53.210Z,23.70
2022-12-05T06:21:21.793Z,24.38
2022-12-05T06:23:49.348Z,24.83
2022-12-05T06:26:20.070Z,25.10
2022-12-05T06:28:47.526Z,25.38
2022-12-05T06:31:28.548Z,26.83
2022-12-05T06:33:55.804Z,26.35
2022-12-05T06:36:23.334Z,25.50
2022-12-05T06:38:50.587Z,24.30
2022-12-05T06:41:21.013Z,27.73
2022-12-05T06:43:48.279Z,24.93
2022-12-05T06:46:16.616Z,26.10
2022-12-05T06:48:44.335Z,24.23
2022-12-05T06:51:16.315Z,22.75
2022-12-05T06:53:44.562Z,23.95
2022-12-05T06:56:19.839Z,22.63
2022-12-05T06:58:50.041Z,25.00
2022-12-05T07:01:41.537Z,22.85
2022-12-05T07:04:20.462Z,22.80
2022-12-05T07:06:51.535Z,24.15
2022-12-05T07:09:23.487Z,25.65
2022-12-05T07:11:51.966Z,25.08
2022-12-05T07:14:48.736Z,25.27
2022-12-05T07:17:06.822Z,24.70
2022-12-05T07:19:34.199Z,23.73
2022-12-05T07:22:01.786Z,24.27
2022-12-05T07:24:28.944Z,23.40
2022-12-05T07:26:56.618Z,23.02
2022-12-05T07:29:23.727Z,24.63
2022-12-05T07:31:51.200Z,23.20
2022-12-05T07:34:18.829Z,25.00
2022-12-05T07:36:46.685Z,25.50
2022-12-05T07:39:13.816Z,23.23
2022-12-05T07:41:42.236Z,23.25
2022-12-05T07:44:13.519Z,23.13
2022-12-05T07:46:41.414Z,23.98
2022-12-05T07:49:09.357Z,25.73
2022-12-05T07:51:37.051Z,23.35
2022-12-05T07:54:04.425Z,22.52
2022-12-05T07:56:31.832Z,25.17
2022-12-05T07:58:59.083Z,25.23
2022-12-05T08:01:29.761Z,21.55
2022-12-05T08:03:59.769Z,22.90
2022-12-05T08:06:33.837Z,24.88
2022-12-05T08:09:01.028Z,25.02
2022-12-05T08:11:32.579Z,21.75
2022-12-05T08:13:59.915Z,24.42
2022-12-05T08:16:31.199Z,24.88
2022-12-05T08:19:08.769Z,24.15
2022-12-05T08:21:36.249Z,24.98
2022-12-05T08:24:06.580Z,22.00
2022-12-05T08:26:36.461Z,22.23
2022-12-05T08:29:10.430Z,22.02
2022-12-05T08:31:51.814Z,21.90
2022-12-05T08:34:20.712Z,21.02
2022-12-05T08:36:48.931Z,21.63
2022-12-05T08:39:19.769Z,20.02
2022-12-05T08:41:48.779Z,20.83
2022-12-05T08:44:17.178Z,19.90
2022-12-05T08:46:47.865Z,20.15
2022-12-05T08:49:16.143Z,20.17
2022-12-05T08:51:44.267Z,21.38
2022-12-05T08:54:12.082Z,20.50
2022-12-05T08:56:39.650Z,19.23
2022-12-05T08:59:07.877Z,21.67
2022-12-05T09:01:38.859Z,21.17
2022-12-05T09:04:08.266Z,21.98
2022-12-05T09:06:36.648Z,21.25
2022-12-05T09:09:08.925Z,22.38
2022-12-05T09:11:44.040Z,21.48
2022-12-05T09:14:11.234Z,19.63
2022-12-05T09:16:39.811Z,21.95
2022-12-05T09:19:21.068Z,21.27
2022-12-05T09:21:48.674Z,20.20
2022-12-05T09:24:16.051Z,23.05
2022-12-05T09:26:43.819Z,20.02
2022-12-05T09:29:17.229Z,20.58
2022-12-05T09:31:50.189Z,20.70
2022-12-05T09:34:20.164Z,20.02
2022-12-05T09:37:01.353Z,20.08
2022-12-05T09:39:38.082Z,21.13
2022-12-05T09:42:35.219Z,21.73
2022-12-05T09:45:18.273Z,22.58
2022-12-05T09:47:59.355Z,21.88
2022-12-05T09:50:32.425Z,22.42
2022-12-05T09:53:20.745Z,27.67
2022-12-05T09:56:20.945Z,23.60
2022-12-05T09:58:52.487Z,23.27
2022-12-05T10:01:50.467Z,23.13
2022-12-05T10:04:45.127Z,21.35
2022-12-05T10:07:29.462Z,20.98
2022-12-05T10:10:21.381Z,20.25
2022-12-05T10:13:15.252Z,21.35
2022-12-05T10:15:57.593Z,21.73
2022-12-05T10:18:40.509Z,21.42
2022-12-05T10:21:43.266Z,20.42
2022-12-05T10:24:30.260Z,22.52
2022-12-05T10:27:05.259Z,20.75
2022-12-05T10:29:49.212Z,20.67
2022-12-05T10:32:32.156Z,19.27
2022-12-05T10:35:25.646Z,20.48
2022-12-05T10:37:58.357Z,20.98
2022-12-05T10:40:37.684Z,21.20
2022-12-05T10:43:09.029Z,19.48
2022-12-05T10:45:45.116Z,19.20
2022-12-05T10:48:17.982Z,20.27
2022-12-05T10:50:50.510Z,18.77
2022-12-05T10:53:46.549Z,19.80
2022-12-05T10:56:45.253Z,19.27
2022-12-05T10:59:17.773Z,20.35
2022-12-05T11:01:55.581Z,21.25
2022-12-05T11:04:45.395Z,20.35
2022-12-05T11:07:32.136Z,22.63
2022-12-05T11:10:04.354Z,23.48
2022-12-05T11:12:39.599Z,27.40
2022-12-05T11:15:16.404Z,21.65
2022-12-05T11:17:43.613Z,23.15
2022-12-05T11:20:31.386Z,22.15
2022-12-05T11:22:59.460Z,21.85
2022-12-05T11:25:36.760Z,22.88
2022-12-05T11:28:21.664Z,23.90
2022-12-05T11:31:12.231Z,23.20
2022-12-05T11:33:40.523Z,21.42
2022-12-05T11:36:19.698Z,31.77
2022-12-05T11:38:47.327Z,26.75
2022-12-05T11:41:18.120Z,22.17
2022-12-05T11:44:19.579Z,24.00
2022-12-05T11:46:52.876Z,27.95
2022-12-05T11:49:41.637Z,29.48
2022-12-05T11:52:48.189Z,27.48
2022-12-05T11:55:54.045Z,32.20
2022-12-05T11:58:48.488Z,28.20
2022-12-05T12:02:08.985Z,29.60
2022-12-05T12:05:23.967Z,25.92
2022-12-05T12:08:19.006Z,29.15
2022-12-05T12:11:05.405Z,23.95
2022-12-05T12:14:01.863Z,26.20
2022-12-05T12:17:01.980Z,26.60
2022-12-05T12:19:44.307Z,27.45
2022-12-05T12:22:54.363Z,26.05
2022-12-05T12:25:33.845Z,32.40
2022-12-05T12:28:29.396Z,30.50
2022-12-05T12:31:07.537Z,32.70
2022-12-05T12:33:58.412Z,29.98
2022-12-05T12:36:39.173Z,29.25
2022-12-05T12:39:24.158Z,32.83
2022-12-05T12:42:18.044Z,33.30
2022-12-05T12:45:42.614Z,34.42
2022-12-05T12:48:52.180Z,35.10
2022-12-05T12:51:20.158Z,32.90
2022-12-05T12:54:08.846Z,28.98
2022-12-05T12:56:58.494Z,32.38
2022-12-05T13:00:23.179Z,35.47
2022-12-05T13:03:30.881Z,33.55
2022-12-05T13:06:24.451Z,34.45
2022-12-05T13:09:04.992Z,30.17
2022-12-05T13:11:40.920Z,32.20
2022-12-05T13:14:20.785Z,30.02
2022-12-05T13:16:53.184Z,36.65
2022-12-05T13:19:31.104Z,33.10
2022-12-05T13:21:59.565Z,32.75
2022-12-05T13:24:29.573Z,32.33
2022-12-05T13:27:05.185Z,31.90
2022-12-05T13:29:41.082Z,28.73
2022-12-05T13:32:34.795Z,28.58
2022-12-05T13:35:48.985Z,29.38
2022-12-05T13:38:58.025Z,28.30
2022-12-05T13:42:04.844Z,27.80
2022-12-05T13:44:53.577Z,26.55
2022-12-05T13:47:45.595Z,23.63
2022-12-05T13:50:24.290Z,21.45
2022-12-05T13:53:00.812Z,21.75
2022-12-05T13:55:36.661Z,24.95
2022-12-05T13:58:24.226Z,27.70
2022-12-05T14:01:27.854Z,29.88
2022-12-05T14:03:58.650Z,34.42
2022-12-05T14:06:40.664Z,34.08
2022-12-05T14:09:20.256Z,29.90
2022-12-05T14:12:16.624Z,28.60
2022-12-05T14:14:59.260Z,29.35
2022-12-05T14:17:42.566Z,26.17
2022-12-05T14:20:15.871Z,27.33
2022-12-05T14:23:28.293Z,28.13
2022-12-05T14:26:09.494Z,24.52
2022-12-05T14:29:05.369Z,27.23
2022-12-05T14:32:04.203Z,28.13
2022-12-05T14:34:37.011Z,25.27
2022-12-05T14:37:27.253Z,26.55
2022-12-05T14:39:59.487Z,26.67
2022-12-05T14:42:27.014Z,26.40
2022-12-05T14:45:02.196Z,25.92
2022-12-05T14:47:34.262Z,25.65
2022-12-05T14:50:44.327Z,27.63
2022-12-05T14:53:32.787Z,23.38
2022-12-05T14:56:23.367Z,25.60
2022-12-05T14:59:09.893Z,24.48
2022-12-05T15:01:49.107Z,23.85
2022-12-05T15:04:32.852Z,20.52
2022-12-05T15:07:09.750Z,20.33
2022-12-05T15:10:10.709Z,24.60
2022-12-05T15:13:12.878Z,26.55
2022-12-05T15:15:41.801Z,22.48
2022-12-05T15:18:45.914Z,20.67
2022-12-05T15:21:43.229Z,25.90
2022-12-05T15:24:15.386Z,37.85
2022-12-05T15:26:53.325Z,25.83
2022-12-05T15:29:23.677Z,21.77
2022-12-05T15:32:10.563Z,18.85
2022-12-05T15:35:02.549Z,23.65
2022-12-05T15:37:56.462Z,19.88
2022-12-05T15:40:26.286Z,24.85
2022-12-05T15:42:57.440Z,25.30
2022-12-05T15:45:29.036Z,24.83
2022-12-05T15:48:08.618Z,24.80
2022-12-05T15:50:42.827Z,22.20
2022-12-05T15:53:30.088Z,22.40
2022-12-05T15:56:18.807Z,23.40
2022-12-05T15:59:28.228Z,21.15
2022-12-05T16:02:14.616Z,19.90
2022-12-05T16:05:01.229Z,18.15
2022-12-05T16:07:31.874Z,18.75
2022-12-05T16:10:02.391Z,18.30
2022-12-05T16:12:44.500Z,24.50
2022-12-05T16:15:22.269Z,22.58
2022-12-05T16:17:58.438Z,29.75
2022-12-05T16:20:37.501Z,38.20
2022-12-05T16:23:32.332Z,38.97
2022-12-05T16:26:21.652Z,32.33
2022-12-05T16:29:02.541Z,30.33
2022-12-05T16:31:33.054Z,31.02
2022-12-05T16:34:16.819Z,29.25
2022-12-05T16:36:50.307Z,37.35
2022-12-05T16:39:19.886Z,33.53
2022-12-05T16:41:49.878Z,38.78
2022-12-05T16:45:03.868Z,45.25
2022-12-05T16:47:56.954Z,41.72
2022-12-05T16:50:35.087Z,38.10
2022-12-05T16:53:08.561Z,40.58
2022-12-05T16:55:41.250Z,50.22
2022-12-05T16:58:22.349Z,53.58
2022-12-05T17:00:50.653Z,52.83
2022-12-05T17:03:34.098Z,49.70
2022-12-05T17:06:02.596Z,43.03
2022-12-05T17:08:30.210Z,51.50
2022-12-05T17:10:58.333Z,53.45
2022-12-05T17:13:25.922Z,72.07
2022-12-05T17:15:54.148Z,99.95
2022-12-05T17:18:26.558Z,105.63
2022-12-05T17:21:00.160Z,121.43
2022-12-05T17:23:27.826Z,122.45
2022-12-05T17:25:58.073Z,118.43
2022-12-05T17:28:26.172Z,117.90
2022-12-05T17:30:53.364Z,104.25
2022-12-05T17:33:20.868Z,104.03
2022-12-05T17:35:48.101Z,95.82
2022-12-05T17:38:15.560Z,100.75
2022-12-05T17:40:42.849Z,95.90
2022-12-05T17:43:21.402Z,88.88
2022-12-05T17:45:52.739Z,93.53
2022-12-05T17:48:20.628Z,84.68
2022-12-05T17:50:49.726Z,93.47
2022-12-05T17:53:20.541Z,88.05
2022-12-05T17:55:51.530Z,85.38
2022-12-05T17:58:19.376Z,71.93
2022-12-05T18:00:47.585Z,78.20
2022-12-05T18:03:18.251Z,72.07
2022-12-05T18:05:46.972Z,95.05
2022-12-05T18:08:16.881Z,92.85
2022-12-05T18:10:47.661Z,86.57
2022-12-05T18:13:17.140Z,92.65
2022-12-05T18:15:49.097Z,102.13
2022-12-05T18:18:18.242Z,111.72
2022-12-05T18:20:45.603Z,95.53
2022-12-05T18:23:13.390Z,118.43
2022-12-05T18:25:41.785Z,103.15
2022-12-05T18:28:09.427Z,103.53
2022-12-05T18:30:36.701Z,89.70
2022-12-05T18:33:04.514Z,76.80
2022-12-05T18:35:41.102Z,80.45
2022-12-05T18:38:11.313Z,74.55
2022-12-05T18:40:38.684Z,68.25
2022-12-05T18:43:06.423Z,102.85
2022-12-05T18:45:33.721Z,104.60
2022-12-05T18:48:16.288Z,95.80
2022-12-05T18:50:48.415Z,108.30
2022-12-05T18:53:16.213Z,125.43
2022-12-05T18:56:05.092Z,119.88
2022-12-05T18:58:31.324Z,99.53
2022-12-05T19:01:11.436Z,84.63
2022-12-05T19:03:40.119Z,95.28
2022-12-05T19:06:23.737Z,101.95
2022-12-05T19:08:55.280Z,85.03
2022-12-05T19:11:24.304Z,92.65
2022-12-05T19:13:56.594Z,79.07
2022-12-05T19:16:24.424Z,68.20
2022-12-05T19:18:59.807Z,62.25
2022-12-05T19:21:30.826Z,57.80
2022-12-05T19:23:59.126Z,52.75
2022-12-05T19:26:27.047Z,50.55
2022-12-05T19:28:54.744Z,65.25
2022-12-05T19:31:25.070Z,62.42
2022-12-05T19:33:56.319Z,65.85
2022-12-05T19:36:40.380Z,67.90
2022-12-05T19:39:23.601Z,78.72
2022-12-05T19:41:52.055Z,85.90
2022-12-05T19:44:19.467Z,86.93
2022-12-05T19:46:48.297Z,84.10
2022-12-05T19:49:17.561Z,68.82
2022-12-05T19:51:45.667Z,62.10
2022-12-05T19:54:17.732Z,54.90
2022-12-05T19:56:45.259Z,58.75
2022-12-05T19:59:16.967Z,63.97
2022-12-05T20:01:44.863Z,67.47
2022-12-05T20:04:16.386Z,68.65
2022-12-05T20:06:49.264Z,63.60
2022-12-05T20:09:21.422Z,71.28
2022-12-05T20:11:55.061Z,67.05
2022-12-05T20:14:25.878Z,67.72
2022-12-05T20:16:53.702Z,78.00
2022-12-05T20:19:22.733Z,77.03
2022-12-05T20:21:50.190Z,69.40
2022-12-05T20:24:17.726Z,63.38
2022-12-05T20:26:45.261Z,54.20
2022-12-05T20:29:13.428Z,58.53
2022-12-05T20:31:43.434Z,58.65
2022-12-05T20:34:13.912Z,76.50
2022-12-05T20:36:42.069Z,70.53
2022-12-05T20:39:15.781Z,71.57
2022-12-05T20:41:43.754Z,87.75
2022-12-05T20:44:15.652Z,89.57
2022-12-05T20:46:43.002Z,78.10
2022-12-05T20:49:13.739Z,71.72
2022-12-05T20:51:46.399Z,75.97
2022-12-05T20:54:16.775Z,67.47
2022-12-05T20:56:45.418Z,60.63
2022-12-05T20:59:13.832Z,53.97
2022-12-05T21:01:41.717Z,57.95
2022-12-05T21:04:11.326Z,62.60
2022-12-05T21:06:42.408Z,68.15
2022-12-05T21:09:16.082Z,70.88
2022-12-05T21:11:44.069Z,66.40
2022-12-05T21:14:12.230Z,64.38
2022-12-05T21:16:39.423Z,56.20
2022-12-05T21:19:06.994Z,63.45
2022-12-05T21:21:34.292Z,55.25
2022-12-05T21:24:04.666Z,63.03
2022-12-05T21:26:34.559Z,64.63
2022-12-05T21:29:04.927Z,57.78
2022-12-05T21:31:37.544Z,58.83
2022-12-05T21:34:13.024Z,61.42
2022-12-05T21:36:40.857Z,62.67
2022-12-05T21:39:08.529Z,58.58
2022-12-05T21:41:35.856Z,60.17
2022-12-05T21:44:04.332Z,61.30
2022-12-05T21:46:31.878Z,61.95
2022-12-05T21:48:59.787Z,55.85
2022-12-05T21:51:27.155Z,54.28
2022-12-05T21:53:54.648Z,48.10
2022-12-05T21:56:23.568Z,53.55
2022-12-05T21:58:52.504Z,50.95
2022-12-05T22:01:26.971Z,57.95
2022-12-05T22:03:59.624Z,63.10
2022-12-05T22:06:28.227Z,64.63
2022-12-05T22:08:55.865Z,61.63
2022-12-05T22:11:24.725Z,69.20
2022-12-05T22:13:52.945Z,71.65
2022-12-05T22:16:21.162Z,75.28
2022-12-05T22:18:49.224Z,82.88
2022-12-05T22:21:21.791Z,101.03
2022-12-05T22:23:49.917Z,84.28
2022-12-05T22:26:24.124Z,74.03
2022-12-05T22:28:54.652Z,66.70
2022-12-05T22:31:23.799Z,64.05
2022-12-05T22:33:51.646Z,87.47
2022-12-05T22:36:20.212Z,92.05
2022-12-05T22:38:48.771Z,96.68
2022-12-05T22:41:23.862Z,95.15
2022-12-05T22:43:58.018Z,82.35
2022-12-05T22:46:28.338Z,94.65
2022-12-05T22:48:56.671Z,76.07
2022-12-05T22:51:24.801Z,78.75
2022-12-05T22:53:53.672Z,68.80
2022-12-05T22:56:23.731Z,78.60
2022-12-05T22:58:55.929Z,74.90
2022-12-05T23:01:33.507Z,81.97
2022-12-05T23:04:08.556Z,73.75
2022-12-05T23:06:38.297Z,78.85
2022-12-05T23:09:09.504Z,80.75
2022-12-05T23:11:38.176Z,74.13
2022-12-05T23:14:07.407Z,72.45
2022-12-05T23:16:35.247Z,70.70
2022-12-05T23:19:05.850Z,61.00
2022-12-05T23:21:40.555Z,72.90
2022-12-05T23:24:12.247Z,86.70
2022-12-05T23:26:45.916Z,93.50
2022-12-05T23:29:14.904Z,81.15
2022-12-05T23:31:43.552Z,86.15
2022-12-05T23:34:12.046Z,85.10
2022-12-05T23:36:39.532Z,83.00
2022-12-05T23:39:07.242Z,72.63
2022-12-05T23:41:34.721Z,65.93
2022-12-05T23:44:02.445Z,71.63
2022-12-05T23:46:30.230Z,71.25
2022-12-05T23:48:58.831Z,63.63
2022-12-05T23:51:29.519Z,56.17
2022-12-05T23:54:00.683Z,76.50
2022-12-05T23:56:31.709Z,81.35
2022-12-05T23:58:59.637Z,78.38
